createdAt,value
2023-05-19T00:01:13.837Z,102095.00
2023-05-19T00:03:56.177Z,102085.66
2023-05-19T00:06:29.522Z,102094.28
2023-05-19T00:09:03.906Z,102091.75
2023-05-19T00:11:36.336Z,102088.16
2023-05-19T00:14:09.685Z,102095.00
2023-05-19T00:16:42.678Z,102090.88
2023-05-19T00:19:13.000Z,102081.88
2023-05-19T00:21:43.479Z,102093.19
2023-05-19T00:24:16.201Z,102084.94
2023-05-19T00:26:46.275Z,102088.16
2023-05-19T00:29:18.726Z,102081.19
2023-05-19T00:31:49.880Z,102096.06
2023-05-19T00:34:20.529Z,102089.59
2023-05-19T00:36:50.817Z,102084.94
2023-05-19T00:39:23.393Z,102078.44
2023-05-19T00:41:56.430Z,102078.09
2023-05-19T00:44:26.475Z,102069.47
2023-05-19T00:46:56.915Z,102080.59
2023-05-19T00:49:38.971Z,102077.00
2023-05-19T00:52:10.323Z,102077.69
2023-05-19T00:54:46.238Z,102071.78
2023-05-19T00:57:17.457Z,102075.41
2023-05-19T00:59:47.840Z,102072.66
2023-05-19T01:02:18.258Z,102071.78
2023-05-19T01:04:49.182Z,102071.59
2023-05-19T01:07:20.176Z,102069.63
2023-05-19T01:09:55.498Z,102067.13
2023-05-19T01:12:26.212Z,102069.81
2023-05-19T01:14:57.916Z,102069.81
2023-05-19T01:17:34.633Z,102071.78
2023-05-19T01:20:14.292Z,102075.91
2023-05-19T01:23:08.940Z,102064.44
2023-05-19T01:26:12.776Z,102078.22
2023-05-19T01:29:10.538Z,102077.69
2023-05-19T01:31:47.392Z,102073.34
2023-05-19T01:34:23.867Z,102050.53
2023-05-19T01:36:56.534Z,102062.22
2023-05-19T01:39:27.836Z,102062.59
2023-05-19T01:41:58.056Z,102067.22
2023-05-19T01:44:28.445Z,102067.06
2023-05-19T01:47:01.716Z,102065.06
2023-05-19T01:49:33.993Z,102059.84
2023-05-19T01:52:05.968Z,102071.16
2023-05-19T01:54:36.937Z,102076.53
2023-05-19T01:57:23.284Z,102057.47
2023-05-19T02:00:09.541Z,102077.19
2023-05-19T02:03:01.938Z,102082.59
2023-05-19T02:05:43.915Z,102043.53
2023-05-19T02:08:23.642Z,102070.53
2023-05-19T02:11:05.251Z,102071.03
2023-05-19T02:13:40.141Z,102075.69
2023-05-19T02:16:11.147Z,102072.09
2023-05-19T02:18:45.738Z,102067.59
2023-05-19T02:21:16.323Z,102037.53
2023-05-19T02:23:46.559Z,102070.94
2023-05-19T02:26:16.729Z,102059.78
2023-05-19T02:28:47.057Z,102078.31
2023-05-19T02:31:17.147Z,102068.59
2023-05-19T02:33:49.809Z,102069.31
2023-05-19T02:36:20.016Z,102064.81
2023-05-19T02:38:50.111Z,102064.22
2023-05-19T02:41:20.070Z,102069.97
2023-05-19T02:43:50.176Z,102059.19
2023-05-19T02:46:20.194Z,102057.00
2023-05-19T02:48:53.832Z,102067.94
2023-05-19T02:51:23.805Z,102051.75
2023-05-19T02:53:53.972Z,102058.97
2023-05-19T02:56:24.240Z,102062.16
2023-05-19T02:58:54.292Z,102043.78
2023-05-19T03:01:24.460Z,102059.97
2023-05-19T03:03:57.188Z,102031.56
2023-05-19T03:06:27.438Z,102060.69
2023-05-19T03:08:57.466Z,102062.50
2023-05-19T03:11:27.708Z,102060.69
2023-05-19T03:13:57.768Z,102054.97
2023-05-19T03:16:28.335Z,102055.88
2023-05-19T03:19:01.687Z,102060.88
2023-05-19T03:21:32.264Z,102052.59
2023-05-19T03:24:03.266Z,102060.66
2023-05-19T03:26:33.599Z,102051.13
2023-05-19T03:29:12.652Z,102056.16
2023-05-19T03:31:43.940Z,102057.38
2023-05-19T03:34:17.368Z,102051.66
2023-05-19T03:36:51.868Z,102052.69
2023-05-19T03:39:24.522Z,102045.31
2023-05-19T03:41:56.469Z,102057.13
2023-05-19T03:44:26.676Z,102056.03
2023-05-19T03:46:57.166Z,102056.03
2023-05-19T03:50:03.339Z,102050.25
2023-05-19T03:52:51.336Z,102056.72
2023-05-19T03:55:37.441Z,102057.22
2023-05-19T03:58:07.477Z,102047.50
2023-05-19T04:00:40.020Z,102057.09
2023-05-19T04:03:10.687Z,102056.16
2023-05-19T04:05:43.637Z,102064.09
2023-05-19T04:08:13.919Z,102053.75
2023-05-19T04:10:43.998Z,102033.91
2023-05-19T04:13:14.344Z,102056.25
2023-05-19T04:15:44.522Z,102060.19
2023-05-19T04:18:14.572Z,102030.47
2023-05-19T04:20:47.769Z,102063.25
2023-05-19T04:23:17.925Z,102056.03
2023-05-19T04:25:48.877Z,102068.13
2023-05-19T04:28:19.091Z,102066.69
2023-05-19T04:30:49.442Z,102058.84
2023-05-19T04:33:20.276Z,102067.97
2023-05-19T04:35:53.680Z,102073.91
2023-05-19T04:38:23.967Z,102062.41
2023-05-19T04:40:55.001Z,102074.66
2023-05-19T04:43:27.506Z,102064.31
2023-05-19T04:45:58.314Z,102069.69
2023-05-19T04:48:31.279Z,102075.66
2023-05-19T04:51:06.240Z,102075.91
2023-05-19T04:53:36.838Z,102070.78
2023-05-19T04:56:14.203Z,102073.69
2023-05-19T04:58:47.071Z,102065.25
2023-05-19T05:01:22.512Z,102070.31
2023-05-19T05:03:55.380Z,102067.09
2023-05-19T05:06:28.805Z,102070.72
2023-05-19T05:09:04.206Z,102066.69
2023-05-19T05:11:36.926Z,102067.94
2023-05-19T05:14:13.375Z,102065.69
2023-05-19T05:16:45.973Z,102062.84
2023-05-19T05:19:22.588Z,102053.13
2023-05-19T05:21:56.319Z,102073.91
2023-05-19T05:24:27.110Z,102069.50
2023-05-19T05:27:02.267Z,102066.69
2023-05-19T05:29:34.106Z,102050.72
2023-05-19T05:32:08.215Z,102057.69
2023-05-19T05:34:42.166Z,102057.94
2023-05-19T05:37:20.060Z,102058.56
2023-05-19T05:39:52.144Z,102045.41
2023-05-19T05:42:22.444Z,102041.06
2023-05-19T05:44:53.038Z,102047.75
2023-05-19T05:47:23.920Z,102040.31
2023-05-19T05:49:54.883Z,102045.53
2023-05-19T05:52:32.929Z,102044.16
2023-05-19T05:55:04.781Z,102043.53
2023-05-19T05:57:35.580Z,102049.25
2023-05-19T06:00:10.925Z,102024.75
2023-05-19T06:02:46.729Z,102048.31
2023-05-19T06:05:17.809Z,102057.72
2023-05-19T06:07:52.278Z,102050.28
2023-05-19T06:10:26.956Z,102058.91
2023-05-19T06:12:58.406Z,102051.78
2023-05-19T06:15:29.967Z,102050.63
2023-05-19T06:18:12.449Z,102055.44
2023-05-19T06:20:43.388Z,102042.22
2023-05-19T06:23:16.501Z,102026.47
2023-05-19T06:25:46.538Z,102045.00
2023-05-19T06:28:18.217Z,102026.22
2023-05-19T06:30:48.521Z,102053.59
2023-05-19T06:33:43.202Z,102044.41
2023-05-19T06:36:15.999Z,102045.56
2023-05-19T06:38:50.827Z,102028.97
2023-05-19T06:41:21.937Z,102049.88
2023-05-19T06:43:54.516Z,102038.69
2023-05-19T06:46:25.690Z,102051.28
2023-05-19T06:48:56.177Z,102053.56
2023-05-19T06:51:28.137Z,102050.50
2023-05-19T06:54:03.185Z,102052.75
2023-05-19T06:56:33.518Z,102049.94
2023-05-19T06:59:04.308Z,102045.47
2023-05-19T07:01:39.073Z,102044.19
2023-05-19T07:04:09.380Z,102047.56
2023-05-19T07:06:40.979Z,102029.53
2023-05-19T07:09:14.825Z,102045.38
2023-05-19T07:11:51.930Z,102047.63
2023-05-19T07:14:22.052Z,102033.72
2023-05-19T07:16:52.375Z,102047.13
2023-05-19T07:19:24.318Z,102040.72
2023-05-19T07:21:57.326Z,102019.78
2023-05-19T07:24:31.828Z,102045.31
2023-05-19T07:27:01.918Z,102041.72
2023-05-19T07:29:32.438Z,102040.59
2023-05-19T07:32:02.622Z,102042.81
2023-05-19T07:34:32.806Z,102040.41
2023-05-19T07:37:03.767Z,102034.75
2023-05-19T07:39:44.037Z,102027.53
2023-05-19T07:42:14.190Z,102026.00
2023-05-19T07:44:44.521Z,102028.50
2023-05-19T07:47:14.993Z,102029.84
2023-05-19T07:49:45.138Z,102028.22
2023-05-19T07:52:15.456Z,102030.75
2023-05-19T07:54:49.235Z,102024.50
2023-05-19T07:57:20.421Z,102027.81
2023-05-19T07:59:50.874Z,102000.09
2023-05-19T08:02:21.139Z,102016.44
2023-05-19T08:04:55.770Z,102014.97
2023-05-19T08:07:26.400Z,102014.06
2023-05-19T08:09:59.397Z,102019.31
2023-05-19T08:12:30.722Z,102019.94
2023-05-19T08:15:01.835Z,102016.84
2023-05-19T08:17:32.470Z,102015.78
2023-05-19T08:20:04.172Z,101991.75
2023-05-19T08:22:34.686Z,102012.78
2023-05-19T08:25:08.189Z,102014.09
2023-05-19T08:27:38.289Z,102019.91
2023-05-19T08:30:10.551Z,102018.94
2023-05-19T08:32:40.779Z,101990.91
2023-05-19T08:35:13.177Z,102002.41
2023-05-19T08:37:43.866Z,102014.06
2023-05-19T08:40:20.398Z,102005.84
2023-05-19T08:43:04.859Z,102009.28
2023-05-19T08:45:38.809Z,102010.22
2023-05-19T08:48:09.366Z,102003.50
2023-05-19T08:50:43.732Z,101987.66
2023-05-19T08:56:17.647Z,101991.66
2023-05-19T08:58:48.866Z,101989.66
2023-05-19T09:01:19.703Z,101991.78
2023-05-19T09:03:51.008Z,101980.44
2023-05-19T09:06:27.902Z,101975.47
2023-05-19T09:09:00.382Z,101982.25
2023-05-19T09:11:36.049Z,101986.06
2023-05-19T09:14:06.662Z,101976.50
2023-05-19T09:16:36.888Z,101975.66
2023-05-19T09:19:08.962Z,101981.00
2023-05-19T09:21:39.106Z,101988.03
2023-05-19T09:24:10.893Z,101963.34
2023-05-19T09:26:44.707Z,101969.28
2023-05-19T09:29:15.761Z,101973.56
2023-05-19T09:31:53.185Z,101974.44
2023-05-19T09:34:25.223Z,101968.34
2023-05-19T09:36:58.037Z,101962.38
2023-05-19T09:39:29.159Z,101968.56
2023-05-19T09:42:01.854Z,101959.47
2023-05-19T09:44:33.045Z,101941.88
2023-05-19T09:47:03.718Z,101955.97
2023-05-19T09:49:34.712Z,101951.16
2023-05-19T09:52:06.827Z,101952.72
2023-05-19T09:54:38.073Z,101947.84
2023-05-19T09:57:11.157Z,101935.09
2023-05-19T09:59:41.908Z,101950.59
2023-05-19T10:02:18.500Z,101941.72
2023-05-19T10:04:50.653Z,101933.72
2023-05-19T10:07:22.469Z,101937.13
2023-05-19T10:09:54.031Z,101938.91
2023-05-19T10:12:28.944Z,101934.53
2023-05-19T10:14:59.847Z,101930.09
2023-05-19T10:17:31.858Z,101929.69
2023-05-19T10:20:04.575Z,101919.91
2023-05-19T10:22:34.792Z,101906.91
2023-05-19T10:25:05.028Z,101927.81
2023-05-19T10:27:45.384Z,101908.06
2023-05-19T10:30:20.598Z,101922.59
2023-05-19T10:32:52.287Z,101926.84
2023-05-19T10:35:39.177Z,101903.91
2023-05-19T10:38:19.422Z,101902.72
2023-05-19T10:40:58.769Z,101899.88
2023-05-19T10:43:42.873Z,101887.94
2023-05-19T10:46:13.297Z,101898.06
2023-05-19T10:48:47.708Z,101893.81
2023-05-19T10:51:18.553Z,101901.06
2023-05-19T10:53:50.319Z,101901.34
2023-05-19T10:56:34.362Z,101898.78
2023-05-19T10:59:07.588Z,101886.44
2023-05-19T11:01:41.898Z,101881.44
2023-05-19T11:04:15.969Z,101877.09
2023-05-19T11:06:54.454Z,101882.03
2023-05-19T11:09:37.760Z,101893.66
2023-05-19T11:12:11.365Z,101886.47
2023-05-19T11:14:45.235Z,101892.06
2023-05-19T11:17:18.424Z,101891.00
2023-05-19T11:19:56.876Z,101895.34
2023-05-19T11:22:28.609Z,101894.97
2023-05-19T11:24:58.967Z,101884.50
2023-05-19T11:27:33.784Z,101888.69
2023-05-19T11:30:15.506Z,101880.31
2023-05-19T11:32:47.118Z,101889.41
2023-05-19T11:35:38.436Z,101887.38
2023-05-19T11:38:10.211Z,101882.41
2023-05-19T11:40:40.872Z,101875.41
2023-05-19T11:43:11.297Z,101878.13
2023-05-19T11:45:44.471Z,101866.16
2023-05-19T11:48:16.538Z,101861.16
2023-05-19T11:50:47.368Z,101860.88
2023-05-19T11:53:20.083Z,101857.72
2023-05-19T11:55:51.906Z,101861.91
2023-05-19T11:58:29.697Z,101845.97
2023-05-19T12:01:07.608Z,101860.66
2023-05-19T12:03:37.930Z,101859.75
2023-05-19T12:06:09.388Z,101866.66
2023-05-19T12:08:41.023Z,101865.88
2023-05-19T12:11:11.484Z,101868.69
2023-05-19T12:13:41.889Z,101869.41
2023-05-19T12:16:14.829Z,101864.59
2023-05-19T12:18:45.360Z,101867.91
2023-05-19T12:21:17.688Z,101858.47
2023-05-19T12:23:48.293Z,101848.81
2023-05-19T12:26:22.629Z,101843.84
2023-05-19T12:28:56.464Z,101846.13
2023-05-19T12:31:29.207Z,101841.28
2023-05-19T12:33:59.573Z,101834.84
2023-05-19T12:36:32.053Z,101832.94
2023-05-19T12:39:02.738Z,101832.69
2023-05-19T12:41:32.964Z,101832.22
2023-05-19T12:44:03.902Z,101832.28
2023-05-19T12:46:38.045Z,101842.81
2023-05-19T12:49:08.209Z,101843.63
2023-05-19T12:51:40.636Z,101824.13
2023-05-19T12:54:11.450Z,101832.00
2023-05-19T12:56:43.959Z,101829.97
2023-05-19T12:59:16.897Z,101829.59
2023-05-19T13:02:03.156Z,101818.09
2023-05-19T13:04:33.331Z,101817.84
2023-05-19T13:07:06.130Z,101820.09
2023-05-19T13:09:37.312Z,101818.81
2023-05-19T13:12:08.107Z,101815.00
2023-05-19T13:14:45.969Z,101817.41
2023-05-19T13:17:19.675Z,101817.38
2023-05-19T13:19:50.061Z,101811.72
2023-05-19T13:22:20.590Z,101812.41
2023-05-19T13:24:53.405Z,101807.19
2023-05-19T13:27:24.938Z,101799.06
2023-05-19T13:29:57.362Z,101784.63
2023-05-19T13:32:30.150Z,101813.00
2023-05-19T13:35:00.547Z,101821.41
2023-05-19T13:37:30.951Z,101807.81
2023-05-19T13:40:01.727Z,101812.91
2023-05-19T13:42:31.975Z,101799.66
2023-05-19T13:45:04.580Z,101808.44
2023-05-19T13:47:38.377Z,101816.16
2023-05-19T13:50:12.965Z,101790.38
2023-05-19T13:52:43.847Z,101802.47
2023-05-19T13:55:14.007Z,101801.50
2023-05-19T13:57:44.382Z,101805.25
2023-05-19T14:00:18.399Z,101800.56
2023-05-19T14:02:51.366Z,101811.06
2023-05-19T14:05:23.482Z,101802.72
2023-05-19T14:07:53.701Z,101798.78
2023-05-19T14:10:29.031Z,101798.00
2023-05-19T14:15:37.944Z,101794.22
2023-05-19T14:18:11.334Z,101781.56
2023-05-19T14:20:42.219Z,101782.44
2023-05-19T14:23:12.566Z,101778.31
2023-05-19T14:25:43.585Z,101776.81
2023-05-19T14:28:13.732Z,101768.91
2023-05-19T14:30:44.440Z,101769.59
2023-05-19T14:33:17.366Z,101767.31
2023-05-19T14:35:47.666Z,101754.75
2023-05-19T14:38:21.934Z,101775.16
2023-05-19T14:40:52.185Z,101769.09
2023-05-19T14:43:22.405Z,101775.22
2023-05-19T14:45:53.035Z,101780.66
2023-05-19T14:48:25.893Z,101781.03
2023-05-19T14:51:00.904Z,101779.06
2023-05-19T14:53:31.460Z,101775.75
2023-05-19T14:56:01.727Z,101771.28
2023-05-19T14:58:31.865Z,101753.63
2023-05-19T15:01:04.553Z,101756.06
2023-05-19T15:03:37.502Z,101753.50
2023-05-19T15:06:12.379Z,101745.94
2023-05-19T15:08:42.805Z,101747.03
2023-05-19T15:11:16.453Z,101739.13
2023-05-19T15:13:46.675Z,101751.56
2023-05-19T15:16:18.679Z,101751.06
2023-05-19T15:18:52.168Z,101765.84
2023-05-19T15:21:24.435Z,101738.34
2023-05-19T15:23:54.862Z,101765.13
2023-05-19T15:26:25.162Z,101768.09
2023-05-19T15:28:55.973Z,101748.09
2023-05-19T15:31:26.440Z,101761.44
2023-05-19T15:33:59.570Z,101761.91
2023-05-19T15:36:29.699Z,101755.56
2023-05-19T15:38:59.983Z,101765.53
2023-05-19T15:41:30.128Z,101774.59
2023-05-19T15:44:00.777Z,101775.47
2023-05-19T15:46:40.526Z,101773.38
2023-05-19T15:49:15.297Z,101771.00
2023-05-19T15:51:45.922Z,101765.69
2023-05-19T15:54:22.195Z,101771.50
2023-05-19T15:56:52.576Z,101758.94
2023-05-19T15:59:23.008Z,101763.69
2023-05-19T16:01:53.420Z,101767.25
2023-05-19T16:04:26.250Z,101766.69
2023-05-19T16:06:56.421Z,101739.53
2023-05-19T16:09:26.635Z,101764.53
2023-05-19T16:11:56.829Z,101706.13
2023-05-19T16:14:31.277Z,101742.22
2023-05-19T16:17:05.892Z,101741.53
2023-05-19T16:19:39.276Z,101743.09
2023-05-19T16:22:09.586Z,101747.88
2023-05-19T16:24:40.221Z,101740.63
2023-05-19T16:27:10.455Z,101732.00
2023-05-19T16:29:40.555Z,101732.00
2023-05-19T16:32:10.934Z,101714.31
2023-05-19T16:34:43.796Z,101728.84
2023-05-19T16:37:14.651Z,101727.56
2023-05-19T16:39:48.639Z,101735.97
2023-05-19T16:42:20.391Z,101732.78
2023-05-19T16:44:50.581Z,101716.03
2023-05-19T16:47:20.896Z,101727.50
2023-05-19T16:49:53.627Z,101739.25
2023-05-19T16:52:23.874Z,101735.38
2023-05-19T16:54:54.700Z,101720.50
2023-05-19T16:57:26.789Z,101738.34
2023-05-19T16:59:57.145Z,101745.09
2023-05-19T17:02:27.450Z,101741.06
2023-05-19T17:05:00.657Z,101737.13
2023-05-19T17:07:31.204Z,101736.22
2023-05-19T17:10:01.844Z,101722.09
2023-05-19T17:12:34.916Z,101739.44
2023-05-19T17:15:05.028Z,101738.41
2023-05-19T17:17:35.318Z,101739.16
2023-05-19T17:20:09.465Z,101740.69
2023-05-19T17:22:39.480Z,101738.13
2023-05-19T17:25:13.088Z,101749.66
2023-05-19T17:27:43.230Z,101725.38
2023-05-19T17:30:16.381Z,101735.22
2023-05-19T17:32:47.952Z,101734.47
2023-05-19T17:35:24.945Z,101739.69
2023-05-19T17:38:00.857Z,101741.44
2023-05-19T17:40:33.974Z,101743.00
2023-05-19T17:43:08.499Z,101741.69
2023-05-19T17:45:44.708Z,101739.66
2023-05-19T17:48:15.018Z,101744.00
2023-05-19T17:50:49.769Z,101736.38
2023-05-19T17:53:20.948Z,101722.63
2023-05-19T17:55:54.645Z,101743.28
2023-05-19T17:58:27.807Z,101723.41
2023-05-19T18:00:59.172Z,101741.88
2023-05-19T18:03:30.067Z,101739.09
2023-05-19T18:06:03.935Z,101743.78
2023-05-19T18:08:35.352Z,101731.06
2023-05-19T18:11:06.289Z,101742.00
2023-05-19T18:13:37.359Z,101734.22
2023-05-19T18:16:09.098Z,101734.00
2023-05-19T18:18:41.412Z,101732.84
2023-05-19T18:21:18.045Z,101716.31
2023-05-19T18:23:48.815Z,101729.41
2023-05-19T18:26:22.304Z,101729.41
2023-05-19T18:28:52.737Z,101729.06
2023-05-19T18:31:23.258Z,101730.44
2023-05-19T18:33:53.396Z,101722.16
2023-05-19T18:36:26.550Z,101735.41
2023-05-19T18:38:58.340Z,101733.63
2023-05-19T18:41:28.730Z,101740.25
2023-05-19T18:43:59.216Z,101732.09
2023-05-19T18:46:30.322Z,101746.38
2023-05-19T18:49:00.787Z,101742.16
2023-05-19T18:51:36.268Z,101754.50
2023-05-19T18:54:06.979Z,101750.69
2023-05-19T18:56:37.455Z,101756.28
2023-05-19T18:59:08.008Z,101760.38
2023-05-19T19:01:38.477Z,101751.59
2023-05-19T19:04:09.356Z,101757.94
2023-05-19T19:06:46.083Z,101757.50
2023-05-19T19:09:16.819Z,101754.44
2023-05-19T19:11:50.822Z,101762.84
2023-05-19T19:14:20.941Z,101758.25
2023-05-19T19:16:51.209Z,101742.44
2023-05-19T19:19:23.968Z,101729.31
2023-05-19T19:21:58.407Z,101767.63
2023-05-19T19:24:31.039Z,101767.84
2023-05-19T19:27:01.358Z,101776.50
2023-05-19T19:29:32.008Z,101773.53
2023-05-19T19:32:08.556Z,101778.19
2023-05-19T19:34:38.936Z,101773.47
2023-05-19T19:37:11.948Z,101778.19
2023-05-19T19:39:42.180Z,101765.91
2023-05-19T19:42:12.462Z,101779.16
2023-05-19T19:44:42.646Z,101786.53
2023-05-19T19:47:13.005Z,101769.28
2023-05-19T19:49:43.093Z,101784.34
2023-05-19T19:52:20.467Z,101794.09
2023-05-19T19:54:50.981Z,101793.78
2023-05-19T19:57:22.639Z,101768.66
2023-05-19T19:59:56.882Z,101772.28
2023-05-19T20:02:26.800Z,101797.09
2023-05-19T20:04:57.150Z,101794.00
2023-05-19T20:07:29.929Z,101799.91
2023-05-19T20:10:00.002Z,101793.34
2023-05-19T20:12:30.294Z,101803.50
2023-05-19T20:15:00.595Z,101798.78
2023-05-19T20:17:33.514Z,101800.91
2023-05-19T20:20:08.267Z,101791.28
2023-05-19T20:22:44.459Z,101810.09
2023-05-19T20:25:14.551Z,101800.91
2023-05-19T20:27:52.122Z,101800.03
2023-05-19T20:30:22.896Z,101781.63
2023-05-19T20:32:53.025Z,101813.19
2023-05-19T20:35:23.537Z,101816.22
2023-05-19T20:37:56.455Z,101816.69
2023-05-19T20:40:26.923Z,101816.13
2023-05-19T20:42:57.389Z,101820.88
2023-05-19T20:45:27.642Z,101817.81
2023-05-19T20:47:59.558Z,101819.00
2023-05-19T20:50:29.887Z,101827.03
2023-05-19T20:53:03.681Z,101824.81
2023-05-19T20:55:34.035Z,101826.63
2023-05-19T20:58:04.336Z,101824.41
2023-05-19T21:00:34.912Z,101820.41
2023-05-19T21:03:05.876Z,101829.97
2023-05-19T21:05:36.091Z,101828.50
2023-05-19T21:08:13.021Z,101819.25
2023-05-19T21:10:43.192Z,101825.09
2023-05-19T21:13:13.209Z,101833.13
2023-05-19T21:15:43.232Z,101821.22
2023-05-19T21:18:14.283Z,101820.75
2023-05-19T21:20:44.484Z,101829.00
2023-05-19T21:23:17.233Z,101826.75
2023-05-19T21:25:47.675Z,101827.66
2023-05-19T21:28:17.921Z,101826.91
2023-05-19T21:30:50.878Z,101826.31
2023-05-19T21:33:21.153Z,101834.50
2023-05-19T21:35:51.476Z,101809.28
2023-05-19T21:38:24.508Z,101840.13
2023-05-19T21:40:55.167Z,101840.41
2023-05-19T21:43:25.397Z,101850.22
2023-05-19T21:45:55.680Z,101856.63
2023-05-19T21:48:28.887Z,101863.91
2023-05-19T21:50:59.328Z,101826.63
2023-05-19T21:53:38.842Z,101852.84
2023-05-19T21:56:11.421Z,101855.56
2023-05-19T21:58:41.716Z,101851.06
2023-05-19T22:01:13.535Z,101854.94
2023-05-19T22:03:44.595Z,101861.63
2023-05-19T22:06:17.941Z,101854.63
2023-05-19T22:08:53.679Z,101855.22
2023-05-19T22:11:24.061Z,101837.03
2023-05-19T22:13:54.901Z,101851.94
2023-05-19T22:16:25.236Z,101860.38
2023-05-19T22:18:56.014Z,101839.50
2023-05-19T22:21:28.121Z,101857.28
2023-05-19T22:24:03.162Z,101851.59
2023-05-19T22:26:34.727Z,101852.16
2023-05-19T22:29:05.220Z,101824.13
2023-05-19T22:31:36.341Z,101850.66
2023-05-19T22:34:06.941Z,101848.13
2023-05-19T22:36:37.853Z,101852.16
2023-05-19T22:39:10.943Z,101857.03
2023-05-19T22:41:42.218Z,101846.72
2023-05-19T22:44:16.299Z,101858.63
2023-05-19T22:46:47.029Z,101861.75
2023-05-19T22:49:19.070Z,101859.47
2023-05-19T22:51:52.535Z,101870.91
2023-05-19T22:54:28.408Z,101870.28
2023-05-19T22:56:59.024Z,101866.66
2023-05-19T22:59:29.178Z,101875.56
2023-05-19T23:01:59.702Z,101869.72
2023-05-19T23:04:31.921Z,101875.41
2023-05-19T23:07:02.118Z,101863.94
2023-05-19T23:09:36.644Z,101873.00
2023-05-19T23:12:07.190Z,101870.28
2023-05-19T23:14:37.967Z,101869.72
2023-05-19T23:17:08.865Z,101873.16
2023-05-19T23:19:39.997Z,101869.16
2023-05-19T23:22:11.182Z,101870.28
2023-05-19T23:24:44.436Z,101847.59
2023-05-19T23:27:14.656Z,101889.53
2023-05-19T23:29:47.269Z,101896.03
2023-05-19T23:32:19.880Z,101876.66
2023-05-19T23:34:50.903Z,101891.25
2023-05-19T23:37:21.121Z,101892.41
2023-05-19T23:39:54.589Z,101880.75
2023-05-19T23:42:27.008Z,101892.06
2023-05-19T23:44:57.191Z,101893.38
2023-05-19T23:47:29.725Z,101898.13
2023-05-19T23:49:59.834Z,101888.09
2023-05-19T23:52:30.050Z,101887.38
2023-05-19T23:55:03.788Z,101890.44
2023-05-19T23:57:35.858Z,101891.91
